sensor_id;sensor_type;location;lat;lon;timestamp;P1;durP1;ratioP1;P2;durP2;ratioP2
48849;SDS011;63210;53.370;6.770;2023-12-28T00:00:20;6.32;;;3.40;;
48849;SDS011;63210;53.370;6.770;2023-12-28T00:02:46;4.82;;;3.72;;
48849;SDS011;63210;53.370;6.770;2023-12-28T00:05:13;5.38;;;3.40;;
48849;SDS011;63210;53.370;6.770;2023-12-28T00:07:39;6.13;;;4.10;;
48849;SDS011;63210;53.370;6.770;2023-12-28T00:10:05;4.10;;;3.30;;
48849;SDS011;63210;53.370;6.770;2023-12-28T00:12:31;5.53;;;3.28;;
48849;SDS011;63210;53.370;6.770;2023-12-28T00:14:57;6.10;;;4.25;;
48849;SDS011;63210;53.370;6.770;2023-12-28T00:17:23;5.45;;;3.97;;
48849;SDS011;63210;53.370;6.770;2023-12-28T00:19:48;3.30;;;2.92;;
48849;SDS011;63210;53.370;6.770;2023-12-28T00:22:23;5.55;;;3.40;;
48849;SDS011;63210;53.370;6.770;2023-12-28T00:24:50;5.38;;;3.45;;
48849;SDS011;63210;53.370;6.770;2023-12-28T00:27:21;4.53;;;3.33;;
48849;SDS011;63210;53.370;6.770;2023-12-28T00:29:47;5.53;;;3.30;;
48849;SDS011;63210;53.370;6.770;2023-12-28T00:32:13;5.72;;;3.40;;
48849;SDS011;63210;53.370;6.770;2023-12-28T00:34:42;6.63;;;3.40;;
48849;SDS011;63210;53.370;6.770;2023-12-28T00:37:23;6.95;;;3.72;;
48849;SDS011;63210;53.370;6.770;2023-12-28T00:39:51;5.10;;;3.05;;
48849;SDS011;63210;53.370;6.770;2023-12-28T00:42:17;6.78;;;4.07;;
48849;SDS011;63210;53.370;6.770;2023-12-28T00:44:46;5.88;;;3.97;;
48849;SDS011;63210;53.370;6.770;2023-12-28T00:47:14;3.90;;;3.13;;
48849;SDS011;63210;53.370;6.770;2023-12-28T00:49:40;6.70;;;3.72;;
48849;SDS011;63210;53.370;6.770;2023-12-28T00:52:08;5.15;;;3.10;;
48849;SDS011;63210;53.370;6.770;2023-12-28T00:54:40;4.53;;;3.08;;
48849;SDS011;63210;53.370;6.770;2023-12-28T00:57:09;4.43;;;3.03;;
48849;SDS011;63210;53.370;6.770;2023-12-28T00:59:34;6.05;;;3.65;;
48849;SDS011;63210;53.370;6.770;2023-12-28T01:02:02;6.07;;;3.90;;
48849;SDS011;63210;53.370;6.770;2023-12-28T01:04:29;7.78;;;3.80;;
48849;SDS011;63210;53.370;6.770;2023-12-28T01:06:55;8.23;;;3.85;;
48849;SDS011;63210;53.370;6.770;2023-12-28T01:09:20;8.85;;;3.40;;
48849;SDS011;63210;53.370;6.770;2023-12-28T01:11:48;6.28;;;3.55;;
48849;SDS011;63210;53.370;6.770;2023-12-28T01:14:13;7.20;;;3.38;;
48849;SDS011;63210;53.370;6.770;2023-12-28T01:16:39;9.13;;;3.90;;
48849;SDS011;63210;53.370;6.770;2023-12-28T01:19:10;10.30;;;3.90;;
48849;SDS011;63210;53.370;6.770;2023-12-28T01:21:41;6.53;;;3.38;;
48849;SDS011;63210;53.370;6.770;2023-12-28T01:24:07;6.78;;;4.30;;
48849;SDS011;63210;53.370;6.770;2023-12-28T01:26:33;8.85;;;3.38;;
48849;SDS011;63210;53.370;6.770;2023-12-28T01:29:01;7.82;;;2.65;;
48849;SDS011;63210;53.370;6.770;2023-12-28T01:31:28;6.82;;;2.97;;
48849;SDS011;63210;53.370;6.770;2023-12-28T01:33:53;9.32;;;3.40;;
48849;SDS011;63210;53.370;6.770;2023-12-28T01:36:19;9.93;;;3.08;;
48849;SDS011;63210;53.370;6.770;2023-12-28T01:38:47;7.90;;;3.00;;
48849;SDS011;63210;53.370;6.770;2023-12-28T01:41:14;9.90;;;2.90;;
48849;SDS011;63210;53.370;6.770;2023-12-28T01:43:43;10.60;;;2.67;;
48849;SDS011;63210;53.370;6.770;2023-12-28T01:46:09;7.45;;;2.88;;
48849;SDS011;63210;53.370;6.770;2023-12-28T01:48:40;11.68;;;3.40;;
48849;SDS011;63210;53.370;6.770;2023-12-28T01:51:06;11.48;;;3.67;;
48849;SDS011;63210;53.370;6.770;2023-12-28T01:53:36;10.73;;;3.17;;
48849;SDS011;63210;53.370;6.770;2023-12-28T01:56:02;11.70;;;3.50;;
48849;SDS011;63210;53.370;6.770;2023-12-28T01:58:28;13.15;;;3.58;;
48849;SDS011;63210;53.370;6.770;2023-12-28T02:00:58;8.00;;;2.90;;
48849;SDS011;63210;53.370;6.770;2023-12-28T02:03:24;11.40;;;3.40;;
48849;SDS011;63210;53.370;6.770;2023-12-28T02:05:50;10.30;;;3.28;;
48849;SDS011;63210;53.370;6.770;2023-12-28T02:08:17;12.38;;;3.58;;
48849;SDS011;63210;53.370;6.770;2023-12-28T02:10:42;12.20;;;3.50;;
48849;SDS011;63210;53.370;6.770;2023-12-28T02:13:08;12.93;;;3.38;;
48849;SDS011;63210;53.370;6.770;2023-12-28T02:15:33;9.93;;;3.60;;
48849;SDS011;63210;53.370;6.770;2023-12-28T02:18:09;11.88;;;3.50;;
48849;SDS011;63210;53.370;6.770;2023-12-28T02:20:36;12.52;;;4.00;;
48849;SDS011;63210;53.370;6.770;2023-12-28T02:23:03;11.13;;;3.13;;
48849;SDS011;63210;53.370;6.770;2023-12-28T02:25:29;13.07;;;2.88;;
48849;SDS011;63210;53.370;6.770;2023-12-28T02:27:58;11.80;;;3.55;;
48849;SDS011;63210;53.370;6.770;2023-12-28T02:30:24;12.13;;;3.10;;
48849;SDS011;63210;53.370;6.770;2023-12-28T02:33:02;9.82;;;2.90;;
48849;SDS011;63210;53.370;6.770;2023-12-28T02:38:16;10.43;;;3.42;;
48849;SDS011;63210;53.370;6.770;2023-12-28T02:40:45;10.80;;;2.90;;
48849;SDS011;63210;53.370;6.770;2023-12-28T02:43:16;12.18;;;3.42;;
48849;SDS011;63210;53.370;6.770;2023-12-28T02:45:44;11.38;;;3.33;;
48849;SDS011;63210;53.370;6.770;2023-12-28T02:48:11;13.40;;;3.10;;
48849;SDS011;63210;53.370;6.770;2023-12-28T02:50:37;9.93;;;2.90;;
48849;SDS011;63210;53.370;6.770;2023-12-28T02:53:06;12.95;;;3.17;;
48849;SDS011;63210;53.370;6.770;2023-12-28T02:55:42;14.43;;;4.15;;
48849;SDS011;63210;53.370;6.770;2023-12-28T02:58:07;10.15;;;3.00;;
48849;SDS011;63210;53.370;6.770;2023-12-28T03:00:33;13.32;;;3.10;;
48849;SDS011;63210;53.370;6.770;2023-12-28T03:03:01;11.00;;;3.03;;
48849;SDS011;63210;53.370;6.770;2023-12-28T03:05:29;12.73;;;3.15;;
48849;SDS011;63210;53.370;6.770;2023-12-28T03:07:55;15.98;;;3.33;;
48849;SDS011;63210;53.370;6.770;2023-12-28T03:10:27;10.55;;;3.72;;
48849;SDS011;63210;53.370;6.770;2023-12-28T03:12:53;16.20;;;3.63;;
48849;SDS011;63210;53.370;6.770;2023-12-28T03:15:19;13.65;;;3.88;;
48849;SDS011;63210;53.370;6.770;2023-12-28T03:17:48;10.85;;;2.97;;
48849;SDS011;63210;53.370;6.770;2023-12-28T03:20:37;14.05;;;2.88;;
48849;SDS011;63210;53.370;6.770;2023-12-28T03:23:05;11.18;;;2.50;;
48849;SDS011;63210;53.370;6.770;2023-12-28T03:25:40;8.68;;;2.97;;
48849;SDS011;63210;53.370;6.770;2023-12-28T03:28:11;13.02;;;3.20;;
48849;SDS011;63210;53.370;6.770;2023-12-28T03:30:51;13.80;;;3.80;;
48849;SDS011;63210;53.370;6.770;2023-12-28T03:33:24;9.75;;;2.65;;
48849;SDS011;63210;53.370;6.770;2023-12-28T03:35:51;12.10;;;3.75;;
48849;SDS011;63210;53.370;6.770;2023-12-28T03:38:23;8.88;;;2.78;;
48849;SDS011;63210;53.370;6.770;2023-12-28T03:40:50;11.45;;;2.75;;
48849;SDS011;63210;53.370;6.770;2023-12-28T03:43:18;13.23;;;2.58;;
48849;SDS011;63210;53.370;6.770;2023-12-28T03:45:47;7.78;;;3.08;;
48849;SDS011;63210;53.370;6.770;2023-12-28T03:48:15;11.43;;;3.10;;
48849;SDS011;63210;53.370;6.770;2023-12-28T03:50:44;8.32;;;2.80;;
48849;SDS011;63210;53.370;6.770;2023-12-28T03:53:09;6.53;;;2.33;;
48849;SDS011;63210;53.370;6.770;2023-12-28T03:55:35;10.10;;;2.33;;
48849;SDS011;63210;53.370;6.770;2023-12-28T03:58:00;11.20;;;3.30;;
48849;SDS011;63210;53.370;6.770;2023-12-28T04:00:30;12.20;;;3.05;;
48849;SDS011;63210;53.370;6.770;2023-12-28T04:02:55;10.50;;;2.63;;
48849;SDS011;63210;53.370;6.770;2023-12-28T04:05:27;10.55;;;2.40;;
48849;SDS011;63210;53.370;6.770;2023-12-28T04:07:52;9.15;;;2.67;;
48849;SDS011;63210;53.370;6.770;2023-12-28T04:10:28;14.68;;;3.03;;
48849;SDS011;63210;53.370;6.770;2023-12-28T04:12:55;9.18;;;2.47;;
48849;SDS011;63210;53.370;6.770;2023-12-28T04:15:26;11.60;;;2.40;;
48849;SDS011;63210;53.370;6.770;2023-12-28T04:17:51;15.77;;;3.90;;
48849;SDS011;63210;53.370;6.770;2023-12-28T04:20:17;10.15;;;3.00;;
48849;SDS011;63210;53.370;6.770;2023-12-28T04:22:42;6.38;;;1.92;;
48849;SDS011;63210;53.370;6.770;2023-12-28T04:25:08;10.48;;;3.10;;
48849;SDS011;63210;53.370;6.770;2023-12-28T04:27:34;10.70;;;3.63;;
48849;SDS011;63210;53.370;6.770;2023-12-28T04:30:02;13.68;;;3.67;;
48849;SDS011;63210;53.370;6.770;2023-12-28T04:32:33;11.57;;;2.80;;
48849;SDS011;63210;53.370;6.770;2023-12-28T04:35:00;15.68;;;3.45;;
48849;SDS011;63210;53.370;6.770;2023-12-28T04:37:25;13.55;;;4.40;;
48849;SDS011;63210;53.370;6.770;2023-12-28T04:42:21;11.20;;;2.50;;
48849;SDS011;63210;53.370;6.770;2023-12-28T04:44:51;7.75;;;2.40;;
48849;SDS011;63210;53.370;6.770;2023-12-28T04:47:20;9.70;;;2.45;;
48849;SDS011;63210;53.370;6.770;2023-12-28T04:49:46;10.65;;;2.60;;
48849;SDS011;63210;53.370;6.770;2023-12-28T04:52:11;10.02;;;2.63;;
48849;SDS011;63210;53.370;6.770;2023-12-28T04:54:41;9.95;;;2.42;;
48849;SDS011;63210;53.370;6.770;2023-12-28T04:57:06;10.27;;;3.35;;
48849;SDS011;63210;53.370;6.770;2023-12-28T04:59:40;11.50;;;3.10;;
48849;SDS011;63210;53.370;6.770;2023-12-28T05:02:06;14.20;;;2.85;;
48849;SDS011;63210;53.370;6.770;2023-12-28T05:04:32;10.57;;;3.00;;
48849;SDS011;63210;53.370;6.770;2023-12-28T05:06:57;10.50;;;2.50;;
48849;SDS011;63210;53.370;6.770;2023-12-28T05:09:25;11.05;;;2.92;;
48849;SDS011;63210;53.370;6.770;2023-12-28T05:11:51;17.23;;;2.63;;
48849;SDS011;63210;53.370;6.770;2023-12-28T05:14:16;8.00;;;2.25;;
48849;SDS011;63210;53.370;6.770;2023-12-28T05:16:41;12.77;;;2.65;;
48849;SDS011;63210;53.370;6.770;2023-12-28T05:19:06;12.35;;;3.22;;
48849;SDS011;63210;53.370;6.770;2023-12-28T05:21:32;9.18;;;2.25;;
48849;SDS011;63210;53.370;6.770;2023-12-28T05:23:57;14.48;;;2.92;;
48849;SDS011;63210;53.370;6.770;2023-12-28T05:26:23;10.48;;;2.63;;
48849;SDS011;63210;53.370;6.770;2023-12-28T05:28:49;15.40;;;3.00;;
48849;SDS011;63210;53.370;6.770;2023-12-28T05:31:14;17.90;;;3.13;;
48849;SDS011;63210;53.370;6.770;2023-12-28T05:33:39;11.32;;;2.67;;
48849;SDS011;63210;53.370;6.770;2023-12-28T05:36:05;21.10;;;2.97;;
48849;SDS011;63210;53.370;6.770;2023-12-28T05:38:31;8.27;;;2.30;;
48849;SDS011;63210;53.370;6.770;2023-12-28T05:41:00;12.65;;;2.22;;
48849;SDS011;63210;53.370;6.770;2023-12-28T05:43:25;8.57;;;2.47;;
48849;SDS011;63210;53.370;6.770;2023-12-28T05:45:52;17.15;;;3.08;;
48849;SDS011;63210;53.370;6.770;2023-12-28T05:48:17;16.80;;;3.60;;
48849;SDS011;63210;53.370;6.770;2023-12-28T05:50:42;12.57;;;2.40;;
48849;SDS011;63210;53.370;6.770;2023-12-28T05:53:08;19.17;;;3.33;;
48849;SDS011;63210;53.370;6.770;2023-12-28T05:55:42;14.52;;;3.97;;
48849;SDS011;63210;53.370;6.770;2023-12-28T05:58:11;15.55;;;3.22;;
48849;SDS011;63210;53.370;6.770;2023-12-28T06:00:38;15.73;;;2.78;;
48849;SDS011;63210;53.370;6.770;2023-12-28T06:03:04;18.00;;;3.40;;
48849;SDS011;63210;53.370;6.770;2023-12-28T06:05:29;12.00;;;2.80;;
48849;SDS011;63210;53.370;6.770;2023-12-28T06:07:55;11.82;;;4.15;;
48849;SDS011;63210;53.370;6.770;2023-12-28T06:10:20;15.90;;;2.63;;
48849;SDS011;63210;53.370;6.770;2023-12-28T06:12:49;11.55;;;2.92;;
48849;SDS011;63210;53.370;6.770;2023-12-28T06:15:14;13.32;;;3.08;;
48849;SDS011;63210;53.370;6.770;2023-12-28T06:17:39;12.73;;;2.45;;
48849;SDS011;63210;53.370;6.770;2023-12-28T06:20:05;14.85;;;3.28;;
48849;SDS011;63210;53.370;6.770;2023-12-28T06:22:30;13.13;;;3.30;;
48849;SDS011;63210;53.370;6.770;2023-12-28T06:24:56;13.57;;;2.30;;
48849;SDS011;63210;53.370;6.770;2023-12-28T06:27:21;17.45;;;3.42;;
48849;SDS011;63210;53.370;6.770;2023-12-28T06:29:49;21.65;;;3.13;;
48849;SDS011;63210;53.370;6.770;2023-12-28T06:32:15;14.85;;;3.65;;
48849;SDS011;63210;53.370;6.770;2023-12-28T06:34:40;15.85;;;3.55;;
48849;SDS011;63210;53.370;6.770;2023-12-28T06:37:05;19.10;;;3.58;;
48849;SDS011;63210;53.370;6.770;2023-12-28T06:39:31;17.38;;;3.63;;
48849;SDS011;63210;53.370;6.770;2023-12-28T06:41:56;20.20;;;4.60;;
48849;SDS011;63210;53.370;6.770;2023-12-28T06:44:21;18.65;;;4.13;;
48849;SDS011;63210;53.370;6.770;2023-12-28T06:46:47;13.15;;;2.80;;
48849;SDS011;63210;53.370;6.770;2023-12-28T06:49:12;20.50;;;3.00;;
48849;SDS011;63210;53.370;6.770;2023-12-28T06:51:39;15.25;;;2.30;;
48849;SDS011;63210;53.370;6.770;2023-12-28T06:54:04;15.10;;;2.72;;
48849;SDS011;63210;53.370;6.770;2023-12-28T06:56:29;17.40;;;4.05;;
48849;SDS011;63210;53.370;6.770;2023-12-28T06:58:55;15.27;;;2.97;;
48849;SDS011;63210;53.370;6.770;2023-12-28T07:01:22;20.70;;;3.38;;
48849;SDS011;63210;53.370;6.770;2023-12-28T07:03:47;18.10;;;3.63;;
48849;SDS011;63210;53.370;6.770;2023-12-28T07:06:15;15.57;;;4.03;;
48849;SDS011;63210;53.370;6.770;2023-12-28T07:08:41;16.50;;;3.08;;
48849;SDS011;63210;53.370;6.770;2023-12-28T07:11:09;16.20;;;2.75;;
48849;SDS011;63210;53.370;6.770;2023-12-28T07:13:38;12.50;;;2.75;;
48849;SDS011;63210;53.370;6.770;2023-12-28T07:16:03;16.52;;;2.80;;
48849;SDS011;63210;53.370;6.770;2023-12-28T07:18:29;11.60;;;2.75;;
48849;SDS011;63210;53.370;6.770;2023-12-28T07:20:55;17.40;;;2.80;;
48849;SDS011;63210;53.370;6.770;2023-12-28T07:23:20;20.77;;;3.35;;
48849;SDS011;63210;53.370;6.770;2023-12-28T07:25:46;21.27;;;3.53;;
48849;SDS011;63210;53.370;6.770;2023-12-28T07:28:12;17.45;;;3.67;;
48849;SDS011;63210;53.370;6.770;2023-12-28T07:30:38;19.08;;;3.30;;
48849;SDS011;63210;53.370;6.770;2023-12-28T07:33:06;21.27;;;3.83;;
48849;SDS011;63210;53.370;6.770;2023-12-28T07:35:31;17.67;;;3.28;;
48849;SDS011;63210;53.370;6.770;2023-12-28T07:37:57;20.63;;;3.85;;
48849;SDS011;63210;53.370;6.770;2023-12-28T07:40:23;18.83;;;3.10;;
48849;SDS011;63210;53.370;6.770;2023-12-28T07:42:49;15.75;;;3.05;;
48849;SDS011;63210;53.370;6.770;2023-12-28T07:45:14;20.98;;;3.28;;
48849;SDS011;63210;53.370;6.770;2023-12-28T07:47:39;13.32;;;2.40;;
48849;SDS011;63210;53.370;6.770;2023-12-28T07:50:07;18.45;;;3.35;;
48849;SDS011;63210;53.370;6.770;2023-12-28T07:52:33;15.27;;;2.95;;
48849;SDS011;63210;53.370;6.770;2023-12-28T07:54:58;17.88;;;3.03;;
48849;SDS011;63210;53.370;6.770;2023-12-28T07:57:27;15.43;;;2.85;;
48849;SDS011;63210;53.370;6.770;2023-12-28T07:59:52;21.58;;;3.47;;
48849;SDS011;63210;53.370;6.770;2023-12-28T08:02:18;18.70;;;3.63;;
48849;SDS011;63210;53.370;6.770;2023-12-28T08:04:43;20.02;;;3.08;;
48849;SDS011;63210;53.370;6.770;2023-12-28T08:07:08;17.15;;;3.53;;
48849;SDS011;63210;53.370;6.770;2023-12-28T08:09:38;36.30;;;17.60;;
48849;SDS011;63210;53.370;6.770;2023-12-28T08:12:05;21.63;;;7.55;;
48849;SDS011;63210;53.370;6.770;2023-12-28T08:14:30;31.80;;;16.88;;
48849;SDS011;63210;53.370;6.770;2023-12-28T08:16:57;24.77;;;8.27;;
48849;SDS011;63210;53.370;6.770;2023-12-28T08:19:22;27.25;;;11.90;;
48849;SDS011;63210;53.370;6.770;2023-12-28T08:21:48;32.80;;;13.07;;
48849;SDS011;63210;53.370;6.770;2023-12-28T08:24:16;28.17;;;5.03;;
48849;SDS011;63210;53.370;6.770;2023-12-28T08:26:43;27.70;;;6.13;;
48849;SDS011;63210;53.370;6.770;2023-12-28T08:29:08;21.33;;;4.43;;
48849;SDS011;63210;53.370;6.770;2023-12-28T08:31:34;23.92;;;5.05;;
48849;SDS011;63210;53.370;6.770;2023-12-28T08:33:59;25.83;;;3.78;;
48849;SDS011;63210;53.370;6.770;2023-12-28T08:36:28;30.30;;;5.15;;
48849;SDS011;63210;53.370;6.770;2023-12-28T08:38:54;15.07;;;3.60;;
48849;SDS011;63210;53.370;6.770;2023-12-28T08:41:21;29.45;;;4.93;;
48849;SDS011;63210;53.370;6.770;2023-12-28T08:43:49;19.05;;;3.83;;
48849;SDS011;63210;53.370;6.770;2023-12-28T08:46:17;32.50;;;9.63;;
48849;SDS011;63210;53.370;6.770;2023-12-28T08:48:44;27.42;;;4.45;;
48849;SDS011;63210;53.370;6.770;2023-12-28T08:51:15;21.08;;;4.72;;
48849;SDS011;63210;53.370;6.770;2023-12-28T08:53:43;35.97;;;6.32;;
48849;SDS011;63210;53.370;6.770;2023-12-28T08:56:18;28.20;;;4.50;;
48849;SDS011;63210;53.370;6.770;2023-12-28T08:58:47;24.75;;;4.68;;
48849;SDS011;63210;53.370;6.770;2023-12-28T09:01:19;31.10;;;4.82;;
48849;SDS011;63210;53.370;6.770;2023-12-28T09:03:47;25.77;;;3.88;;
48849;SDS011;63210;53.370;6.770;2023-12-28T09:06:16;21.40;;;4.07;;
48849;SDS011;63210;53.370;6.770;2023-12-28T09:08:48;27.50;;;4.57;;
48849;SDS011;63210;53.370;6.770;2023-12-28T09:11:14;29.20;;;4.00;;
48849;SDS011;63210;53.370;6.770;2023-12-28T09:13:39;23.42;;;4.78;;
48849;SDS011;63210;53.370;6.770;2023-12-28T09:16:05;29.50;;;4.90;;
48849;SDS011;63210;53.370;6.770;2023-12-28T09:18:31;25.40;;;4.47;;
48849;SDS011;63210;53.370;6.770;2023-12-28T09:20:56;28.42;;;5.25;;
48849;SDS011;63210;53.370;6.770;2023-12-28T09:23:22;17.88;;;3.30;;
48849;SDS011;63210;53.370;6.770;2023-12-28T09:25:52;25.92;;;4.95;;
48849;SDS011;63210;53.370;6.770;2023-12-28T09:28:26;24.13;;;4.80;;
48849;SDS011;63210;53.370;6.770;2023-12-28T09:30:52;29.45;;;4.30;;
48849;SDS011;63210;53.370;6.770;2023-12-28T09:33:17;29.70;;;4.90;;
48849;SDS011;63210;53.370;6.770;2023-12-28T09:35:43;23.23;;;4.07;;
48849;SDS011;63210;53.370;6.770;2023-12-28T09:38:08;28.13;;;3.65;;
48849;SDS011;63210;53.370;6.770;2023-12-28T09:40:37;24.98;;;5.35;;
48849;SDS011;63210;53.370;6.770;2023-12-28T09:46:09;24.77;;;4.40;;
48849;SDS011;63210;53.370;6.770;2023-12-28T09:48:42;25.95;;;4.40;;
48849;SDS011;63210;53.370;6.770;2023-12-28T09:51:11;37.85;;;5.97;;
48849;SDS011;63210;53.370;6.770;2023-12-28T09:53:37;26.48;;;4.43;;
48849;SDS011;63210;53.370;6.770;2023-12-28T09:56:06;26.42;;;3.67;;
48849;SDS011;63210;53.370;6.770;2023-12-28T09:58:31;27.13;;;5.15;;
48849;SDS011;63210;53.370;6.770;2023-12-28T10:00:59;25.90;;;3.78;;
48849;SDS011;63210;53.370;6.770;2023-12-28T10:03:25;28.73;;;4.45;;
48849;SDS011;63210;53.370;6.770;2023-12-28T10:05:53;19.48;;;3.47;;
48849;SDS011;63210;53.370;6.770;2023-12-28T10:08:18;22.65;;;3.70;;
48849;SDS011;63210;53.370;6.770;2023-12-28T10:10:44;23.90;;;4.97;;
48849;SDS011;63210;53.370;6.770;2023-12-28T10:13:16;23.05;;;4.43;;
48849;SDS011;63210;53.370;6.770;2023-12-28T10:15:42;27.77;;;4.20;;
48849;SDS011;63210;53.370;6.770;2023-12-28T10:18:08;28.63;;;4.63;;
48849;SDS011;63210;53.370;6.770;2023-12-28T10:20:33;23.95;;;5.03;;
48849;SDS011;63210;53.370;6.770;2023-12-28T10:22:59;25.05;;;4.55;;
48849;SDS011;63210;53.370;6.770;2023-12-28T10:25:25;28.60;;;6.07;;
48849;SDS011;63210;53.370;6.770;2023-12-28T10:27:50;26.63;;;4.88;;
48849;SDS011;63210;53.370;6.770;2023-12-28T10:30:19;24.42;;;4.07;;
48849;SDS011;63210;53.370;6.770;2023-12-28T10:32:45;24.60;;;4.07;;
48849;SDS011;63210;53.370;6.770;2023-12-28T10:35:11;24.67;;;4.00;;
48849;SDS011;63210;53.370;6.770;2023-12-28T10:37:40;25.05;;;3.53;;
48849;SDS011;63210;53.370;6.770;2023-12-28T10:40:12;22.08;;;3.38;;
48849;SDS011;63210;53.370;6.770;2023-12-28T10:45:17;23.58;;;3.47;;
48849;SDS011;63210;53.370;6.770;2023-12-28T10:47:47;24.42;;;3.92;;
48849;SDS011;63210;53.370;6.770;2023-12-28T10:52:45;19.88;;;3.83;;
48849;SDS011;63210;53.370;6.770;2023-12-28T10:55:25;21.77;;;3.58;;
48849;SDS011;63210;53.370;6.770;2023-12-28T11:00:24;26.45;;;3.88;;
48849;SDS011;63210;53.370;6.770;2023-12-28T11:02:53;25.50;;;4.25;;
48849;SDS011;63210;53.370;6.770;2023-12-28T11:05:21;18.25;;;3.78;;
48849;SDS011;63210;53.370;6.770;2023-12-28T11:07:47;24.35;;;4.07;;
48849;SDS011;63210;53.370;6.770;2023-12-28T11:10:13;19.60;;;3.38;;
48849;SDS011;63210;53.370;6.770;2023-12-28T11:12:40;13.68;;;3.53;;
48849;SDS011;63210;53.370;6.770;2023-12-28T11:15:08;15.95;;;3.65;;
48849;SDS011;63210;53.370;6.770;2023-12-28T11:17:39;22.27;;;3.70;;
48849;SDS011;63210;53.370;6.770;2023-12-28T11:20:06;22.65;;;4.65;;
48849;SDS011;63210;53.370;6.770;2023-12-28T11:22:32;20.17;;;4.07;;
48849;SDS011;63210;53.370;6.770;2023-12-28T11:24:58;26.13;;;3.40;;
48849;SDS011;63210;53.370;6.770;2023-12-28T11:27:24;22.48;;;4.13;;
48849;SDS011;63210;53.370;6.770;2023-12-28T11:29:54;21.02;;;3.95;;
48849;SDS011;63210;53.370;6.770;2023-12-28T11:32:20;18.65;;;3.22;;
48849;SDS011;63210;53.370;6.770;2023-12-28T11:34:56;21.67;;;4.18;;
48849;SDS011;63210;53.370;6.770;2023-12-28T11:37:51;22.05;;;3.58;;
48849;SDS011;63210;53.370;6.770;2023-12-28T11:40:18;23.65;;;4.32;;
48849;SDS011;63210;53.370;6.770;2023-12-28T11:42:55;28.58;;;4.00;;
48849;SDS011;63210;53.370;6.770;2023-12-28T11:45:24;27.25;;;3.67;;
48849;SDS011;63210;53.370;6.770;2023-12-28T11:47:59;19.50;;;4.00;;
48849;SDS011;63210;53.370;6.770;2023-12-28T11:50:32;22.30;;;4.15;;
48849;SDS011;63210;53.370;6.770;2023-12-28T11:52:58;18.02;;;3.30;;
48849;SDS011;63210;53.370;6.770;2023-12-28T11:55:27;17.48;;;4.13;;
48849;SDS011;63210;53.370;6.770;2023-12-28T11:57:57;22.15;;;3.75;;
48849;SDS011;63210;53.370;6.770;2023-12-28T12:00:23;30.23;;;5.15;;
48849;SDS011;63210;53.370;6.770;2023-12-28T12:02:55;22.23;;;3.78;;
48849;SDS011;63210;53.370;6.770;2023-12-28T12:05:21;22.83;;;3.63;;
48849;SDS011;63210;53.370;6.770;2023-12-28T12:07:50;22.17;;;4.80;;
48849;SDS011;63210;53.370;6.770;2023-12-28T12:10:15;20.70;;;4.80;;
48849;SDS011;63210;53.370;6.770;2023-12-28T12:12:43;25.30;;;3.25;;
48849;SDS011;63210;53.370;6.770;2023-12-28T12:15:09;20.00;;;3.53;;
48849;SDS011;63210;53.370;6.770;2023-12-28T12:17:36;16.67;;;3.50;;
48849;SDS011;63210;53.370;6.770;2023-12-28T12:20:05;20.23;;;3.13;;
48849;SDS011;63210;53.370;6.770;2023-12-28T12:22:31;22.77;;;3.80;;
48849;SDS011;63210;53.370;6.770;2023-12-28T12:24:58;18.75;;;3.00;;
48849;SDS011;63210;53.370;6.770;2023-12-28T12:27:29;28.98;;;3.65;;
48849;SDS011;63210;53.370;6.770;2023-12-28T12:30:08;22.42;;;4.60;;
48849;SDS011;63210;53.370;6.770;2023-12-28T12:32:49;26.15;;;4.03;;
48849;SDS011;63210;53.370;6.770;2023-12-28T12:35:14;21.35;;;3.70;;
48849;SDS011;63210;53.370;6.770;2023-12-28T12:37:40;28.73;;;4.55;;
48849;SDS011;63210;53.370;6.770;2023-12-28T12:40:06;18.13;;;3.33;;
48849;SDS011;63210;53.370;6.770;2023-12-28T12:42:34;32.28;;;5.53;;
48849;SDS011;63210;53.370;6.770;2023-12-28T12:45:03;23.13;;;3.47;;
48849;SDS011;63210;53.370;6.770;2023-12-28T12:47:33;25.85;;;4.32;;
48849;SDS011;63210;53.370;6.770;2023-12-28T12:49:59;22.95;;;3.63;;
48849;SDS011;63210;53.370;6.770;2023-12-28T12:52:31;26.65;;;3.90;;
48849;SDS011;63210;53.370;6.770;2023-12-28T12:55:00;23.80;;;4.65;;
48849;SDS011;63210;53.370;6.770;2023-12-28T12:57:31;24.70;;;4.00;;
48849;SDS011;63210;53.370;6.770;2023-12-28T12:59:58;22.73;;;4.90;;
48849;SDS011;63210;53.370;6.770;2023-12-28T13:02:30;21.40;;;4.22;;
48849;SDS011;63210;53.370;6.770;2023-12-28T13:04:56;31.15;;;4.85;;
48849;SDS011;63210;53.370;6.770;2023-12-28T13:07:24;15.88;;;3.47;;
48849;SDS011;63210;53.370;6.770;2023-12-28T13:09:50;17.52;;;3.13;;
48849;SDS011;63210;53.370;6.770;2023-12-28T13:12:16;35.13;;;4.97;;
48849;SDS011;63210;53.370;6.770;2023-12-28T13:14:53;28.60;;;4.43;;
48849;SDS011;63210;53.370;6.770;2023-12-28T13:17:21;21.45;;;3.92;;
48849;SDS011;63210;53.370;6.770;2023-12-28T13:19:47;23.33;;;3.67;;
48849;SDS011;63210;53.370;6.770;2023-12-28T13:22:14;27.38;;;3.53;;
48849;SDS011;63210;53.370;6.770;2023-12-28T13:24:43;23.92;;;4.95;;
48849;SDS011;63210;53.370;6.770;2023-12-28T13:27:10;24.67;;;4.65;;
48849;SDS011;63210;53.370;6.770;2023-12-28T13:29:35;20.63;;;3.75;;
48849;SDS011;63210;53.370;6.770;2023-12-28T13:32:07;23.85;;;4.13;;
48849;SDS011;63210;53.370;6.770;2023-12-28T13:34:32;22.75;;;4.03;;
48849;SDS011;63210;53.370;6.770;2023-12-28T13:37:02;21.88;;;4.45;;
48849;SDS011;63210;53.370;6.770;2023-12-28T13:39:28;22.10;;;4.18;;
48849;SDS011;63210;53.370;6.770;2023-12-28T13:41:54;17.58;;;3.90;;
48849;SDS011;63210;53.370;6.770;2023-12-28T13:44:20;24.63;;;4.40;;
48849;SDS011;63210;53.370;6.770;2023-12-28T13:46:47;23.85;;;3.53;;
48849;SDS011;63210;53.370;6.770;2023-12-28T13:49:14;19.52;;;3.22;;
48849;SDS011;63210;53.370;6.770;2023-12-28T13:51:39;20.55;;;4.13;;
48849;SDS011;63210;53.370;6.770;2023-12-28T13:54:04;30.55;;;3.92;;
48849;SDS011;63210;53.370;6.770;2023-12-28T13:56:41;19.92;;;3.92;;
48849;SDS011;63210;53.370;6.770;2023-12-28T13:59:25;25.90;;;4.00;;
48849;SDS011;63210;53.370;6.770;2023-12-28T14:04:19;27.33;;;4.75;;
48849;SDS011;63210;53.370;6.770;2023-12-28T14:06:49;22.63;;;5.25;;
48849;SDS011;63210;53.370;6.770;2023-12-28T14:09:16;23.30;;;3.78;;
48849;SDS011;63210;53.370;6.770;2023-12-28T14:11:53;14.63;;;2.78;;
48849;SDS011;63210;53.370;6.770;2023-12-28T14:14:30;16.23;;;3.70;;
48849;SDS011;63210;53.370;6.770;2023-12-28T14:16:56;18.73;;;3.53;;
48849;SDS011;63210;53.370;6.770;2023-12-28T14:19:21;28.55;;;3.70;;
48849;SDS011;63210;53.370;6.770;2023-12-28T14:21:53;28.90;;;5.85;;
48849;SDS011;63210;53.370;6.770;2023-12-28T14:24:19;21.05;;;3.72;;
48849;SDS011;63210;53.370;6.770;2023-12-28T14:26:57;18.63;;;4.35;;
48849;SDS011;63210;53.370;6.770;2023-12-28T14:29:24;25.42;;;4.30;;
48849;SDS011;63210;53.370;6.770;2023-12-28T14:31:56;25.58;;;4.55;;
48849;SDS011;63210;53.370;6.770;2023-12-28T14:34:36;25.55;;;4.30;;
48849;SDS011;63210;53.370;6.770;2023-12-28T14:37:06;23.35;;;4.15;;
48849;SDS011;63210;53.370;6.770;2023-12-28T14:39:38;18.05;;;2.72;;
48849;SDS011;63210;53.370;6.770;2023-12-28T14:42:06;12.35;;;3.00;;
48849;SDS011;63210;53.370;6.770;2023-12-28T14:44:33;27.80;;;4.45;;
48849;SDS011;63210;53.370;6.770;2023-12-28T14:47:00;18.38;;;3.72;;
48849;SDS011;63210;53.370;6.770;2023-12-28T14:49:27;22.90;;;3.42;;
48849;SDS011;63210;53.370;6.770;2023-12-28T14:51:52;25.48;;;3.90;;
48849;SDS011;63210;53.370;6.770;2023-12-28T14:54:20;21.33;;;3.53;;
48849;SDS011;63210;53.370;6.770;2023-12-28T14:56:47;16.88;;;3.50;;